sensor_id;sensor_type;location;lat;lon;timestamp;pressure;altitude;pressure_sealevel;temperature;humidity
12203;BME280;6164;42.178;24.622;2022-11-06T00:00:30;99341.34;;;10.29;100.00
12203;BME280;6164;42.178;24.622;2022-11-06T00:02:57;99335.13;;;10.14;100.00
12203;BME280;6164;42.178;24.622;2022-11-06T00:05:24;99339.22;;;10.24;100.00
12203;BME280;6164;42.178;24.622;2022-11-06T00:08:09;99339.69;;;10.28;100.00
12203;BME280;6164;42.178;24.622;2022-11-06T00:10:35;99328.50;;;10.26;100.00
12203;BME280;6164;42.178;24.622;2022-11-06T00:13:02;99329.78;;;10.30;100.00
12203;BME280;6164;42.178;24.622;2022-11-06T00:15:29;99322.69;;;10.30;100.00
12203;BME280;6164;42.178;24.622;2022-11-06T00:17:55;99340.50;;;10.28;100.00
12203;BME280;6164;42.178;24.622;2022-11-06T00:20:22;99343.00;;;10.22;100.00
12203;BME280;6164;42.178;24.622;2022-11-06T00:22:48;99350.41;;;10.26;100.00
12203;BME280;6164;42.178;24.622;2022-11-06T00:25:16;99351.75;;;10.22;100.00
12203;BME280;6164;42.178;24.622;2022-11-06T00:27:43;99340.72;;;10.19;100.00
12203;BME280;6164;42.178;24.622;2022-11-06T00:30:09;99337.56;;;10.23;100.00
12203;BME280;6164;42.178;24.622;2022-11-06T00:32:36;99340.03;;;10.25;100.00
12203;BME280;6164;42.178;24.622;2022-11-06T00:35:03;99334.91;;;10.23;100.00
12203;BME280;6164;42.178;24.622;2022-11-06T00:37:30;99340.38;;;10.22;100.00
12203;BME280;6164;42.178;24.622;2022-11-06T00:39:56;99334.91;;;10.23;100.00
12203;BME280;6164;42.178;24.622;2022-11-06T00:42:26;99330.34;;;10.17;100.00
12203;BME280;6164;42.178;24.622;2022-11-06T00:44:52;99339.09;;;10.18;100.00
12203;BME280;6164;42.178;24.622;2022-11-06T00:47:19;99353.06;;;10.18;100.00
12203;BME280;6164;42.178;24.622;2022-11-06T00:49:45;99340.59;;;10.12;100.00
12203;BME280;6164;42.178;24.622;2022-11-06T00:52:12;99348.69;;;10.11;100.00
12203;BME280;6164;42.178;24.622;2022-11-06T00:54:38;99344.84;;;10.05;100.00
12203;BME280;6164;42.178;24.622;2022-11-06T00:57:05;99345.38;;;10.01;100.00
12203;BME280;6164;42.178;24.622;2022-11-06T00:59:33;99338.47;;;10.00;100.00
12203;BME280;6164;42.178;24.622;2022-11-06T01:01:59;99346.69;;;9.97;100.00
12203;BME280;6164;42.178;24.622;2022-11-06T01:04:26;99349.34;;;9.97;100.00
12203;BME280;6164;42.178;24.622;2022-11-06T01:06:53;99350.69;;;9.93;100.00
12203;BME280;6164;42.178;24.622;2022-11-06T01:09:22;99355.97;;;9.93;100.00
12203;BME280;6164;42.178;24.622;2022-11-06T01:11:50;99360.41;;;9.92;100.00
12203;BME280;6164;42.178;24.622;2022-11-06T01:14:17;99359.25;;;9.95;100.00
12203;BME280;6164;42.178;24.622;2022-11-06T01:16:45;99358.78;;;9.91;100.00
12203;BME280;6164;42.178;24.622;2022-11-06T01:19:13;99365.84;;;9.91;100.00
12203;BME280;6164;42.178;24.622;2022-11-06T01:21:41;99363.91;;;9.77;100.00
12203;BME280;6164;42.178;24.622;2022-11-06T01:24:10;99380.22;;;9.72;100.00
12203;BME280;6164;42.178;24.622;2022-11-06T01:26:36;99370.84;;;9.70;100.00
12203;BME280;6164;42.178;24.622;2022-11-06T01:29:03;99365.91;;;9.67;100.00
12203;BME280;6164;42.178;24.622;2022-11-06T01:31:30;99355.22;;;9.68;100.00
12203;BME280;6164;42.178;24.622;2022-11-06T01:33:59;99349.94;;;9.68;100.00
12203;BME280;6164;42.178;24.622;2022-11-06T01:36:26;99357.53;;;9.63;100.00
12203;BME280;6164;42.178;24.622;2022-11-06T01:38:53;99357.03;;;9.60;100.00
12203;BME280;6164;42.178;24.622;2022-11-06T01:41:21;99360.50;;;9.60;100.00
12203;BME280;6164;42.178;24.622;2022-11-06T01:43:48;99356.53;;;9.56;100.00
12203;BME280;6164;42.178;24.622;2022-11-06T01:46:15;99352.28;;;9.47;100.00
12203;BME280;6164;42.178;24.622;2022-11-06T01:48:49;99353.91;;;9.48;100.00
12203;BME280;6164;42.178;24.622;2022-11-06T01:51:18;99361.00;;;9.48;100.00
12203;BME280;6164;42.178;24.622;2022-11-06T01:53:45;99359.53;;;9.45;100.00
12203;BME280;6164;42.178;24.622;2022-11-06T01:56:11;99358.88;;;9.43;100.00
12203;BME280;6164;42.178;24.622;2022-11-06T01:58:40;99364.31;;;9.42;100.00
12203;BME280;6164;42.178;24.622;2022-11-06T02:01:08;99356.09;;;9.28;100.00
12203;BME280;6164;42.178;24.622;2022-11-06T02:03:34;99363.50;;;9.25;100.00
12203;BME280;6164;42.178;24.622;2022-11-06T02:06:01;99360.69;;;9.26;100.00
12203;BME280;6164;42.178;24.622;2022-11-06T02:08:30;99357.38;;;9.24;100.00
12203;BME280;6164;42.178;24.622;2022-11-06T02:10:57;99350.81;;;9.20;100.00
12203;BME280;6164;42.178;24.622;2022-11-06T02:13:27;99347.50;;;9.26;100.00
12203;BME280;6164;42.178;24.622;2022-11-06T02:15:59;99348.19;;;9.28;100.00
12203;BME280;6164;42.178;24.622;2022-11-06T02:21:19;99347.84;;;9.23;100.00
12203;BME280;6164;42.178;24.622;2022-11-06T02:23:54;99355.59;;;9.25;100.00
12203;BME280;6164;42.178;24.622;2022-11-06T02:26:31;99347.34;;;9.20;100.00
12203;BME280;6164;42.178;24.622;2022-11-06T02:29:02;99345.69;;;9.11;100.00
12203;BME280;6164;42.178;24.622;2022-11-06T02:31:30;99334.22;;;9.04;100.00
12203;BME280;6164;42.178;24.622;2022-11-06T02:34:00;99342.91;;;9.04;100.00
12203;BME280;6164;42.178;24.622;2022-11-06T02:36:28;99346.53;;;9.03;100.00
12203;BME280;6164;42.178;24.622;2022-11-06T02:38:57;99342.28;;;9.02;100.00
12203;BME280;6164;42.178;24.622;2022-11-06T02:41:27;99351.31;;;9.00;100.00
12203;BME280;6164;42.178;24.622;2022-11-06T02:43:56;99360.53;;;9.04;100.00
12203;BME280;6164;42.178;24.622;2022-11-06T02:46:25;99357.91;;;9.04;100.00
12203;BME280;6164;42.178;24.622;2022-11-06T02:48:55;99359.69;;;9.03;100.00
12203;BME280;6164;42.178;24.622;2022-11-06T02:51:23;99354.09;;;9.06;100.00
12203;BME280;6164;42.178;24.622;2022-11-06T02:53:51;99359.69;;;9.03;100.00
12203;BME280;6164;42.178;24.622;2022-11-06T02:56:19;99354.78;;;9.00;100.00
12203;BME280;6164;42.178;24.622;2022-11-06T02:58:47;99361.84;;;9.00;100.00
12203;BME280;6164;42.178;24.622;2022-11-06T03:01:16;99350.47;;;8.91;100.00
12203;BME280;6164;42.178;24.622;2022-11-06T03:03:45;99356.22;;;8.95;100.00
12203;BME280;6164;42.178;24.622;2022-11-06T03:06:17;99361.16;;;8.90;100.00
12203;BME280;6164;42.178;24.622;2022-11-06T03:08:49;99359.03;;;8.85;100.00
12203;BME280;6164;42.178;24.622;2022-11-06T03:11:20;99370.06;;;8.89;100.00
12203;BME280;6164;42.178;24.622;2022-11-06T03:13:49;99369.06;;;8.90;100.00
12203;BME280;6164;42.178;24.622;2022-11-06T03:16:20;99370.56;;;8.92;100.00
12203;BME280;6164;42.178;24.622;2022-11-06T03:18:52;99373.88;;;8.94;100.00
12203;BME280;6164;42.178;24.622;2022-11-06T03:21:20;99363.28;;;8.86;100.00
12203;BME280;6164;42.178;24.622;2022-11-06T03:23:51;99356.72;;;8.90;100.00
12203;BME280;6164;42.178;24.622;2022-11-06T03:26:20;99353.59;;;8.95;100.00
12203;BME280;6164;42.178;24.622;2022-11-06T03:28:50;99365.63;;;8.97;100.00
12203;BME280;6164;42.178;24.622;2022-11-06T03:31:18;99363.81;;;8.98;100.00
12203;BME280;6164;42.178;24.622;2022-11-06T03:33:48;99364.63;;;8.98;100.00
12203;BME280;6164;42.178;24.622;2022-11-06T03:36:17;99358.53;;;8.98;100.00
12203;BME280;6164;42.178;24.622;2022-11-06T03:38:45;99369.91;;;8.98;100.00
12203;BME280;6164;42.178;24.622;2022-11-06T03:41:17;99375.16;;;8.98;100.00
12203;BME280;6164;42.178;24.622;2022-11-06T03:43:45;99369.91;;;8.98;100.00
12203;BME280;6164;42.178;24.622;2022-11-06T03:46:16;99367.59;;;9.03;100.00
12203;BME280;6164;42.178;24.622;2022-11-06T03:48:45;99369.72;;;8.92;100.00
12203;BME280;6164;42.178;24.622;2022-11-06T03:51:14;99354.59;;;9.02;100.00
12203;BME280;6164;42.178;24.622;2022-11-06T03:53:45;99356.91;;;9.05;100.00
12203;BME280;6164;42.178;24.622;2022-11-06T03:56:17;99352.81;;;9.02;100.00
12203;BME280;6164;42.178;24.622;2022-11-06T03:58:47;99350.00;;;9.04;100.00
12203;BME280;6164;42.178;24.622;2022-11-06T04:01:16;99353.44;;;9.04;100.00
12203;BME280;6164;42.178;24.622;2022-11-06T04:03:44;99350.16;;;9.02;100.00
12203;BME280;6164;42.178;24.622;2022-11-06T04:06:13;99359.69;;;9.03;100.00
12203;BME280;6164;42.178;24.622;2022-11-06T04:08:41;99361.66;;;8.93;100.00
12203;BME280;6164;42.178;24.622;2022-11-06T04:11:27;99370.56;;;9.00;100.00
12203;BME280;6164;42.178;24.622;2022-11-06T04:14:13;99375.50;;;9.03;100.00
12203;BME280;6164;42.178;24.622;2022-11-06T04:16:42;99377.28;;;9.03;100.00
12203;BME280;6164;42.178;24.622;2022-11-06T04:19:11;99374.84;;;9.01;100.00
12203;BME280;6164;42.178;24.622;2022-11-06T04:21:42;99371.56;;;8.99;100.00
12203;BME280;6164;42.178;24.622;2022-11-06T04:24:14;99374.16;;;8.91;100.00
12203;BME280;6164;42.178;24.622;2022-11-06T04:27:00;99375.16;;;8.82;100.00
12203;BME280;6164;42.178;24.622;2022-11-06T04:29:33;99370.38;;;8.86;100.00
12203;BME280;6164;42.178;24.622;2022-11-06T04:32:06;99367.41;;;8.81;100.00
12203;BME280;6164;42.178;24.622;2022-11-06T04:34:39;99375.16;;;8.74;100.00
12203;BME280;6164;42.178;24.622;2022-11-06T04:37:09;99373.97;;;8.69;100.00
12203;BME280;6164;42.178;24.622;2022-11-06T04:39:39;99372.00;;;8.71;100.00
12203;BME280;6164;42.178;24.622;2022-11-06T04:42:14;99377.78;;;8.74;100.00
12203;BME280;6164;42.178;24.622;2022-11-06T04:44:42;99390.59;;;8.77;100.00
12203;BME280;6164;42.178;24.622;2022-11-06T04:47:10;99384.00;;;8.81;100.00
12203;BME280;6164;42.178;24.622;2022-11-06T04:49:38;99385.19;;;8.87;100.00
12203;BME280;6164;42.178;24.622;2022-11-06T04:52:08;99390.13;;;8.90;100.00
12203;BME280;6164;42.178;24.622;2022-11-06T04:54:36;99387.97;;;8.85;100.00
12203;BME280;6164;42.178;24.622;2022-11-06T04:57:03;99382.56;;;8.87;100.00
12203;BME280;6164;42.178;24.622;2022-11-06T04:59:31;99391.13;;;8.89;100.00
12203;BME280;6164;42.178;24.622;2022-11-06T05:01:59;99389.97;;;8.91;100.00
12203;BME280;6164;42.178;24.622;2022-11-06T05:04:25;99395.41;;;8.98;100.00
12203;BME280;6164;42.178;24.622;2022-11-06T05:06:52;99387.03;;;9.02;100.00
12203;BME280;6164;42.178;24.622;2022-11-06T05:09:18;99391.13;;;9.05;100.00
12203;BME280;6164;42.178;24.622;2022-11-06T05:11:45;99390.00;;;9.07;100.00
12203;BME280;6164;42.178;24.622;2022-11-06T05:14:11;99388.50;;;9.13;100.00
12203;BME280;6164;42.178;24.622;2022-11-06T05:16:39;99380.75;;;8.95;100.00
12203;BME280;6164;42.178;24.622;2022-11-06T05:19:06;99383.41;;;9.03;100.00
12203;BME280;6164;42.178;24.622;2022-11-06T05:21:32;99391.81;;;9.15;100.00
12203;BME280;6164;42.178;24.622;2022-11-06T05:24:16;99395.59;;;9.20;100.00
12203;BME280;6164;42.178;24.622;2022-11-06T05:26:43;99408.25;;;9.25;100.00
12203;BME280;6164;42.178;24.622;2022-11-06T05:29:10;99413.88;;;9.22;100.00
12203;BME280;6164;42.178;24.622;2022-11-06T05:31:36;99413.88;;;9.22;100.00
12203;BME280;6164;42.178;24.622;2022-11-06T05:34:04;99410.56;;;9.20;100.00
12203;BME280;6164;42.178;24.622;2022-11-06T05:36:31;99426.53;;;9.26;100.00
12203;BME280;6164;42.178;24.622;2022-11-06T05:38:57;99419.13;;;9.30;100.00
12203;BME280;6164;42.178;24.622;2022-11-06T05:41:24;99414.53;;;9.32;100.00
12203;BME280;6164;42.178;24.622;2022-11-06T05:43:50;99412.22;;;9.37;100.00
12203;BME280;6164;42.178;24.622;2022-11-06T05:46:17;99417.16;;;9.40;100.00
12203;BME280;6164;42.178;24.622;2022-11-06T05:48:43;99421.59;;;9.40;100.00
12203;BME280;6164;42.178;24.622;2022-11-06T05:51:11;99419.13;;;9.46;100.00
12203;BME280;6164;42.178;24.622;2022-11-06T05:53:38;99427.53;;;9.50;100.00
12203;BME280;6164;42.178;24.622;2022-11-06T05:56:04;99437.91;;;9.51;100.00
12203;BME280;6164;42.178;24.622;2022-11-06T05:58:31;99450.75;;;9.54;100.00
12203;BME280;6164;42.178;24.622;2022-11-06T06:00:57;99450.56;;;9.56;100.00
12203;BME280;6164;42.178;24.622;2022-11-06T06:03:24;99449.59;;;9.57;100.00
12203;BME280;6164;42.178;24.622;2022-11-06T06:05:51;99451.56;;;9.63;100.00
12203;BME280;6164;42.178;24.622;2022-11-06T06:08:18;99453.22;;;9.64;100.00
12203;BME280;6164;42.178;24.622;2022-11-06T06:10:45;99460.63;;;9.68;100.00
12203;BME280;6164;42.178;24.622;2022-11-06T06:13:12;99463.59;;;9.73;100.00
12203;BME280;6164;42.178;24.622;2022-11-06T06:15:39;99462.94;;;9.79;100.00
12203;BME280;6164;42.178;24.622;2022-11-06T06:18:06;99471.66;;;9.88;100.00
12203;BME280;6164;42.178;24.622;2022-11-06T06:20:33;99482.34;;;9.94;100.00
12203;BME280;6164;42.178;24.622;2022-11-06T06:23:00;99482.84;;;9.98;100.00
12203;BME280;6164;42.178;24.622;2022-11-06T06:25:28;99479.72;;;10.02;100.00
12203;BME280;6164;42.178;24.622;2022-11-06T06:27:55;99486.47;;;10.05;100.00
12203;BME280;6164;42.178;24.622;2022-11-06T06:30:22;99476.75;;;10.13;100.00
12203;BME280;6164;42.178;24.622;2022-11-06T06:32:49;99487.44;;;10.20;100.00
12203;BME280;6164;42.178;24.622;2022-11-06T06:35:16;99492.38;;;10.31;100.00
12203;BME280;6164;42.178;24.622;2022-11-06T06:37:43;99490.53;;;10.39;100.00
12203;BME280;6164;42.178;24.622;2022-11-06T06:40:15;99498.25;;;10.49;100.00
12203;BME280;6164;42.178;24.622;2022-11-06T06:42:43;99500.38;;;10.53;100.00
12203;BME280;6164;42.178;24.622;2022-11-06T06:45:10;99510.25;;;10.59;100.00
12203;BME280;6164;42.178;24.622;2022-11-06T06:47:36;99515.06;;;10.64;100.00
12203;BME280;6164;42.178;24.622;2022-11-06T06:50:03;99510.09;;;10.69;100.00
12203;BME280;6164;42.178;24.622;2022-11-06T06:52:29;99521.75;;;10.75;100.00
12203;BME280;6164;42.178;24.622;2022-11-06T06:54:56;99513.31;;;10.79;100.00
12203;BME280;6164;42.178;24.622;2022-11-06T06:57:22;99518.28;;;10.82;100.00
12203;BME280;6164;42.178;24.622;2022-11-06T06:59:50;99523.88;;;10.87;100.00
12203;BME280;6164;42.178;24.622;2022-11-06T07:02:16;99526.47;;;10.95;100.00
12203;BME280;6164;42.178;24.622;2022-11-06T07:04:43;99528.22;;;11.03;100.00
12203;BME280;6164;42.178;24.622;2022-11-06T07:07:09;99529.84;;;11.12;100.00
12203;BME280;6164;42.178;24.622;2022-11-06T07:09:36;99541.03;;;11.22;100.00
12203;BME280;6164;42.178;24.622;2022-11-06T07:12:03;99542.44;;;11.32;100.00
12203;BME280;6164;42.178;24.622;2022-11-06T07:14:29;99526.88;;;11.37;100.00
12203;BME280;6164;42.178;24.622;2022-11-06T07:16:57;99528.13;;;11.49;100.00
12203;BME280;6164;42.178;24.622;2022-11-06T07:19:23;99522.97;;;11.56;100.00
12203;BME280;6164;42.178;24.622;2022-11-06T07:21:50;99517.69;;;11.56;100.00
12203;BME280;6164;42.178;24.622;2022-11-06T07:24:16;99529.84;;;11.65;100.00
12203;BME280;6164;42.178;24.622;2022-11-06T07:26:43;99535.56;;;11.76;100.00
12203;BME280;6164;42.178;24.622;2022-11-06T07:29:09;99544.38;;;11.91;100.00
12203;BME280;6164;42.178;24.622;2022-11-06T07:31:36;99553.34;;;12.05;100.00
12203;BME280;6164;42.178;24.622;2022-11-06T07:34:04;99546.19;;;12.14;100.00
12203;BME280;6164;42.178;24.622;2022-11-06T07:36:33;99524.09;;;12.21;100.00
12203;BME280;6164;42.178;24.622;2022-11-06T07:38:59;99533.69;;;12.22;100.00
12203;BME280;6164;42.178;24.622;2022-11-06T07:41:26;99530.88;;;12.24;100.00
12203;BME280;6164;42.178;24.622;2022-11-06T07:43:52;99538.25;;;12.28;100.00
12203;BME280;6164;42.178;24.622;2022-11-06T07:46:19;99535.78;;;12.27;100.00
12203;BME280;6164;42.178;24.622;2022-11-06T07:48:45;99527.84;;;12.27;100.00
12203;BME280;6164;42.178;24.622;2022-11-06T07:51:13;99527.78;;;12.35;100.00
12203;BME280;6164;42.178;24.622;2022-11-06T07:53:40;99538.00;;;12.38;100.00
12203;BME280;6164;42.178;24.622;2022-11-06T07:56:07;99539.47;;;12.40;100.00
12203;BME280;6164;42.178;24.622;2022-11-06T07:58:34;99541.09;;;12.41;100.00
12203;BME280;6164;42.178;24.622;2022-11-06T08:01:00;99560.09;;;12.45;100.00
12203;BME280;6164;42.178;24.622;2022-11-06T08:03:27;99567.97;;;12.53;100.00
12203;BME280;6164;42.178;24.622;2022-11-06T08:05:54;99578.47;;;12.61;100.00
12203;BME280;6164;42.178;24.622;2022-11-06T08:08:22;99586.97;;;12.71;100.00
12203;BME280;6164;42.178;24.622;2022-11-06T08:10:48;99588.31;;;12.67;100.00
12203;BME280;6164;42.178;24.622;2022-11-06T08:13:16;99584.22;;;12.64;100.00
12203;BME280;6164;42.178;24.622;2022-11-06T08:15:43;99591.88;;;12.59;100.00
12203;BME280;6164;42.178;24.622;2022-11-06T08:18:10;99588.06;;;12.62;100.00
12203;BME280;6164;42.178;24.622;2022-11-06T08:20:37;99581.28;;;12.59;100.00
12203;BME280;6164;42.178;24.622;2022-11-06T08:23:04;99588.84;;;12.48;100.00
12203;BME280;6164;42.178;24.622;2022-11-06T08:25:32;99591.69;;;12.46;100.00
12203;BME280;6164;42.178;24.622;2022-11-06T08:28:00;99595.34;;;12.45;100.00
12203;BME280;6164;42.178;24.622;2022-11-06T08:30:27;99594.81;;;12.50;100.00
12203;BME280;6164;42.178;24.622;2022-11-06T08:32:54;99597.28;;;12.51;100.00
12203;BME280;6164;42.178;24.622;2022-11-06T08:35:21;99603.59;;;12.50;100.00
12203;BME280;6164;42.178;24.622;2022-11-06T08:37:47;99590.97;;;12.52;100.00
12203;BME280;6164;42.178;24.622;2022-11-06T08:40:13;99599.56;;;12.54;100.00
12203;BME280;6164;42.178;24.622;2022-11-06T08:42:41;99596.63;;;12.64;100.00
12203;BME280;6164;42.178;24.622;2022-11-06T08:45:08;99606.81;;;12.75;100.00
12203;BME280;6164;42.178;24.622;2022-11-06T08:47:35;99604.06;;;12.83;100.00
12203;BME280;6164;42.178;24.622;2022-11-06T08:50:01;99598.31;;;12.94;100.00
12203;BME280;6164;42.178;24.622;2022-11-06T08:52:28;99597.06;;;13.04;100.00
12203;BME280;6164;42.178;24.622;2022-11-06T08:54:54;99593.47;;;13.12;100.00
12203;BME280;6164;42.178;24.622;2022-11-06T08:57:21;99592.13;;;13.16;100.00
12203;BME280;6164;42.178;24.622;2022-11-06T08:59:49;99600.34;;;13.21;100.00
12203;BME280;6164;42.178;24.622;2022-11-06T09:02:15;99603.50;;;13.31;100.00
12203;BME280;6164;42.178;24.622;2022-11-06T09:04:42;99617.22;;;13.35;100.00
12203;BME280;6164;42.178;24.622;2022-11-06T09:07:08;99633.19;;;13.41;100.00
12203;BME280;6164;42.178;24.622;2022-11-06T09:09:35;99640.16;;;13.42;100.00
12203;BME280;6164;42.178;24.622;2022-11-06T09:12:01;99651.41;;;13.44;100.00
12203;BME280;6164;42.178;24.622;2022-11-06T09:14:28;99654.06;;;13.44;100.00
12203;BME280;6164;42.178;24.622;2022-11-06T09:16:56;99672.44;;;13.46;100.00
12203;BME280;6164;42.178;24.622;2022-11-06T09:19:23;99668.13;;;13.45;100.00
12203;BME280;6164;42.178;24.622;2022-11-06T09:21:49;99657.06;;;13.41;100.00
12203;BME280;6164;42.178;24.622;2022-11-06T09:24:16;99642.91;;;13.19;100.00
12203;BME280;6164;42.178;24.622;2022-11-06T09:26:42;99655.28;;;13.12;100.00
12203;BME280;6164;42.178;24.622;2022-11-06T09:29:09;99670.63;;;13.17;100.00
12203;BME280;6164;42.178;24.622;2022-11-06T09:31:35;99690.63;;;13.19;100.00
12203;BME280;6164;42.178;24.622;2022-11-06T09:34:03;99669.97;;;13.15;100.00
12203;BME280;6164;42.178;24.622;2022-11-06T09:36:30;99642.97;;;12.97;100.00
12203;BME280;6164;42.178;24.622;2022-11-06T09:38:56;99635.28;;;12.73;100.00
12203;BME280;6164;42.178;24.622;2022-11-06T09:41:25;99631.91;;;12.64;100.00
12203;BME280;6164;42.178;24.622;2022-11-06T09:43:56;99631.78;;;12.58;100.00
12203;BME280;6164;42.178;24.622;2022-11-06T09:46:28;99651.69;;;12.54;100.00
12203;BME280;6164;42.178;24.622;2022-11-06T09:48:57;99664.59;;;12.57;100.00
12203;BME280;6164;42.178;24.622;2022-11-06T09:51:29;99682.41;;;12.63;100.00
12203;BME280;6164;42.178;24.622;2022-11-06T09:53:59;99690.19;;;12.79;100.00
12203;BME280;6164;42.178;24.622;2022-11-06T09:56:28;99701.63;;;12.94;100.00
12203;BME280;6164;42.178;24.622;2022-11-06T09:58:56;99708.47;;;13.11;100.00
12203;BME280;6164;42.178;24.622;2022-11-06T10:01:27;99703.34;;;13.24;100.00
12203;BME280;6164;42.178;24.622;2022-11-06T10:03:58;99690.19;;;13.31;100.00
12203;BME280;6164;42.178;24.622;2022-11-06T10:06:25;99683.78;;;13.40;100.00
12203;BME280;6164;42.178;24.622;2022-11-06T10:08:54;99672.78;;;13.43;100.00
12203;BME280;6164;42.178;24.622;2022-11-06T10:11:27;99671.16;;;13.42;100.00
12203;BME280;6164;42.178;24.622;2022-11-06T10:13:57;99682.59;;;13.42;100.00
12203;BME280;6164;42.178;24.622;2022-11-06T10:16:29;99667.75;;;13.48;100.00
12203;BME280;6164;42.178;24.622;2022-11-06T10:19:01;99674.72;;;13.49;100.00
12203;BME280;6164;42.178;24.622;2022-11-06T10:21:33;99683.13;;;13.52;100.00
12203;BME280;6164;42.178;24.622;2022-11-06T10:24:06;99676.44;;;13.56;100.00
12203;BME280;6164;42.178;24.622;2022-11-06T10:26:40;99669.50;;;13.55;100.00
12203;BME280;6164;42.178;24.622;2022-11-06T10:31:55;99661.81;;;13.60;100.00
12203;BME280;6164;42.178;24.622;2022-11-06T10:34:26;99667.38;;;13.65;100.00
12203;BME280;6164;42.178;24.622;2022-11-06T10:36:55;99660.22;;;13.66;100.00
12203;BME280;6164;42.178;24.622;2022-11-06T10:39:28;99652.66;;;13.63;100.00
12203;BME280;6164;42.178;24.622;2022-11-06T10:41:57;99658.50;;;13.58;100.00
12203;BME280;6164;42.178;24.622;2022-11-06T10:44:25;99656.44;;;13.54;100.00
12203;BME280;6164;42.178;24.622;2022-11-06T10:46:54;99654.34;;;13.49;100.00
12203;BME280;6164;42.178;24.622;2022-11-06T10:49:26;99658.16;;;13.47;100.00
12203;BME280;6164;42.178;24.622;2022-11-06T10:52:08;99659.00;;;13.47;100.00
12203;BME280;6164;42.178;24.622;2022-11-06T10:54:45;99660.91;;;13.53;100.00
12203;BME280;6164;42.178;24.622;2022-11-06T10:57:27;99652.31;;;13.51;100.00
12203;BME280;6164;42.178;24.622;2022-11-06T10:59:58;99646.09;;;13.59;100.00
12203;BME280;6164;42.178;24.622;2022-11-06T11:02:26;99645.91;;;13.60;100.00
12203;BME280;6164;42.178;24.622;2022-11-06T11:04:54;99643.44;;;13.59;100.00
12203;BME280;6164;42.178;24.622;2022-11-06T11:07:20;99643.31;;;13.67;100.00
12203;BME280;6164;42.178;24.622;2022-11-06T11:09:48;99639.47;;;13.69;100.00
12203;BME280;6164;42.178;24.622;2022-11-06T11:12:18;99651.63;;;13.78;100.00
12203;BME280;6164;42.178;24.622;2022-11-06T11:14:46;99651.69;;;13.85;100.00
12203;BME280;6164;42.178;24.622;2022-11-06T11:17:29;99641.78;;;13.93;100.00
12203;BME280;6164;42.178;24.622;2022-11-06T11:19:55;99639.75;;;13.95;100.00
12203;BME280;6164;42.178;24.622;2022-11-06T11:22:22;99640.88;;;14.07;100.00
12203;BME280;6164;42.178;24.622;2022-11-06T11:25:00;99628.38;;;14.01;100.00
12203;BME280;6164;42.178;24.622;2022-11-06T11:27:27;99612.66;;;14.00;100.00
12203;BME280;6164;42.178;24.622;2022-11-06T11:29:53;99609.56;;;13.96;100.00
12203;BME280;6164;42.178;24.622;2022-11-06T11:32:21;99620.16;;;13.96;100.00
12203;BME280;6164;42.178;24.622;2022-11-06T11:34:49;99621.25;;;14.02;100.00
12203;BME280;6164;42.178;24.622;2022-11-06T11:37:22;99623.00;;;14.16;100.00
12203;BME280;6164;42.178;24.622;2022-11-06T11:39:50;99622.44;;;14.20;100.00
12203;BME280;6164;42.178;24.622;2022-11-06T11:42:24;99631.31;;;14.27;100.00
12203;BME280;6164;42.178;24.622;2022-11-06T11:45:05;99630.41;;;14.41;100.00
12203;BME280;6164;42.178;24.622;2022-11-06T11:47:32;99626.63;;;14.50;100.00
12203;BME280;6164;42.178;24.622;2022-11-06T11:50:04;99624.84;;;14.58;100.00
12203;BME280;6164;42.178;24.622;2022-11-06T11:52:42;99618.25;;;14.53;100.00
12203;BME280;6164;42.178;24.622;2022-11-06T11:55:12;99616.22;;;14.56;100.00
12203;BME280;6164;42.178;24.622;2022-11-06T11:57:42;99596.38;;;14.51;100.00
12203;BME280;6164;42.178;24.622;2022-11-06T12:00:12;99597.03;;;14.60;100.00
12203;BME280;6164;42.178;24.622;2022-11-06T12:02:40;99599.13;;;14.65;100.00
12203;BME280;6164;42.178;24.622;2022-11-06T12:05:09;99601.66;;;14.73;100.00
12203;BME280;6164;42.178;24.622;2022-11-06T12:07:37;99599.59;;;14.75;100.00
12203;BME280;6164;42.178;24.622;2022-11-06T12:10:13;99608.25;;;14.83;100.00
12203;BME280;6164;42.178;24.622;2022-11-06T12:12:44;99602.91;;;14.83;100.00
12203;BME280;6164;42.178;24.622;2022-11-06T12:15:17;99602.72;;;14.85;100.00
12203;BME280;6164;42.178;24.622;2022-11-06T12:17:49;99605.81;;;14.88;100.00
12203;BME280;6164;42.178;24.622;2022-11-06T12:20:18;99604.59;;;14.84;100.00
12203;BME280;6164;42.178;24.622;2022-11-06T12:22:46;99607.44;;;14.89;100.00
12203;BME280;6164;42.178;24.622;2022-11-06T12:25:15;99610.31;;;14.88;100.00
12203;BME280;6164;42.178;24.622;2022-11-06T12:27:49;99614.00;;;14.87;100.00
12203;BME280;6164;42.178;24.622;2022-11-06T12:30:18;99610.50;;;14.86;100.00
12203;BME280;6164;42.178;24.622;2022-11-06T12:32:51;99590.38;;;14.71;100.00
12203;BME280;6164;42.178;24.622;2022-11-06T12:35:21;99573.81;;;14.69;100.00
12203;BME280;6164;42.178;24.622;2022-11-06T12:38:01;99577.34;;;14.76;100.00
12203;BME280;6164;42.178;24.622;2022-11-06T12:40:31;99577.97;;;14.78;100.00
12203;BME280;6164;42.178;24.622;2022-11-06T12:43:03;99572.84;;;14.83;100.00
12203;BME280;6164;42.178;24.622;2022-11-06T12:45:34;99577.56;;;14.81;100.00
12203;BME280;6164;42.178;24.622;2022-11-06T12:48:07;99582.50;;;14.84;100.00
12203;BME280;6164;42.178;24.622;2022-11-06T12:50:39;99588.63;;;14.84;100.00
12203;BME280;6164;42.178;24.622;2022-11-06T12:53:14;99589.44;;;14.85;100.00
12203;BME280;6164;42.178;24.622;2022-11-06T12:55:46;99587.19;;;14.82;100.00
12203;BME280;6164;42.178;24.622;2022-11-06T12:58:21;99589.44;;;14.85;100.00
12203;BME280;6164;42.178;24.622;2022-11-06T13:00:54;99585.78;;;14.86;100.00
12203;BME280;6164;42.178;24.622;2022-11-06T13:03:34;99591.13;;;14.92;100.00
12203;BME280;6164;42.178;24.622;2022-11-06T13:06:06;99591.59;;;15.02;100.00
12203;BME280;6164;42.178;24.622;2022-11-06T13:08:38;99584.06;;;15.12;100.00